createdAt,value
2023-04-10T00:01:22.996Z,101.15
2023-04-10T00:03:54.058Z,76.07
2023-04-10T00:06:24.083Z,62.25
2023-04-10T00:08:54.289Z,60.75
2023-04-10T00:11:24.124Z,58.50
2023-04-10T00:13:54.237Z,54.20
2023-04-10T00:16:24.158Z,52.78
2023-04-10T00:18:54.060Z,53.55
2023-04-10T00:21:24.089Z,54.53
2023-04-10T00:23:54.101Z,56.38
2023-04-10T00:26:25.611Z,60.50
2023-04-10T00:28:55.585Z,62.88
2023-04-10T00:31:25.457Z,60.20
2023-04-10T00:33:55.622Z,62.53
2023-04-10T00:36:25.702Z,59.28
2023-04-10T00:38:55.732Z,58.63
2023-04-10T00:41:25.743Z,54.28
2023-04-10T00:43:59.735Z,52.95
2023-04-10T00:46:30.348Z,51.65
2023-04-10T00:49:00.585Z,50.85
2023-04-10T00:51:30.422Z,48.60
2023-04-10T00:54:03.038Z,47.15
2023-04-10T00:56:34.858Z,44.00
2023-04-10T00:59:06.573Z,47.10
2023-04-10T01:01:37.261Z,44.38
2023-04-10T01:04:08.402Z,44.78
2023-04-10T01:06:55.993Z,43.22
2023-04-10T01:09:56.520Z,44.60
2023-04-10T01:13:07.630Z,41.38
2023-04-10T01:16:03.036Z,42.85
2023-04-10T01:19:11.948Z,40.63
2023-04-10T01:21:42.655Z,42.17
2023-04-10T01:24:46.747Z,41.47
2023-04-10T01:27:43.209Z,43.95
2023-04-10T01:30:19.256Z,42.28
2023-04-10T01:32:49.331Z,43.03
2023-04-10T01:35:20.305Z,42.08
2023-04-10T01:37:52.708Z,41.83
2023-04-10T01:40:23.352Z,40.20
2023-04-10T01:42:57.536Z,40.28
2023-04-10T01:45:30.850Z,38.67
2023-04-10T01:48:00.838Z,37.63
2023-04-10T01:50:32.788Z,37.35
2023-04-10T01:53:04.628Z,36.30
2023-04-10T01:55:35.992Z,39.08
2023-04-10T01:58:06.805Z,40.03
2023-04-10T02:00:44.758Z,39.92
2023-04-10T02:03:15.143Z,42.97
2023-04-10T02:06:24.819Z,38.58
2023-04-10T02:09:22.428Z,37.45
2023-04-10T02:12:04.544Z,39.40
2023-04-10T02:14:38.530Z,38.25
2023-04-10T02:17:09.028Z,37.88
2023-04-10T02:19:40.831Z,37.00
2023-04-10T02:22:10.892Z,38.20
2023-04-10T02:24:40.830Z,38.08
2023-04-10T02:27:10.659Z,36.20
2023-04-10T02:29:40.599Z,36.15
2023-04-10T02:32:10.430Z,36.08
2023-04-10T02:34:40.292Z,37.08
2023-04-10T02:37:10.085Z,36.03
2023-04-10T02:39:39.780Z,34.83
2023-04-10T02:42:09.782Z,34.13
2023-04-10T02:44:41.192Z,36.33
2023-04-10T02:47:11.104Z,35.03
2023-04-10T02:49:40.853Z,29.50
2023-04-10T02:52:10.717Z,28.52
2023-04-10T02:54:41.273Z,26.70
2023-04-10T02:57:11.160Z,27.83
2023-04-10T02:59:41.146Z,28.13
2023-04-10T03:02:11.181Z,26.33
2023-04-10T03:04:41.169Z,28.30
2023-04-10T03:07:13.395Z,28.75
2023-04-10T03:09:43.109Z,27.20
2023-04-10T03:12:13.269Z,27.98
2023-04-10T03:14:43.265Z,26.40
2023-04-10T03:17:14.116Z,26.05
2023-04-10T03:19:44.191Z,26.58
2023-04-10T03:22:13.899Z,28.35
2023-04-10T03:24:43.720Z,27.27
2023-04-10T03:27:13.426Z,26.15
2023-04-10T03:29:43.248Z,26.67
2023-04-10T03:32:13.000Z,26.88
2023-04-10T03:34:42.891Z,26.98
2023-04-10T03:37:12.758Z,26.15
2023-04-10T03:39:42.596Z,27.00
2023-04-10T03:42:13.142Z,26.08
2023-04-10T03:44:42.937Z,26.42
2023-04-10T03:47:12.735Z,25.13
2023-04-10T03:49:42.673Z,25.60
2023-04-10T03:52:12.562Z,26.13
2023-04-10T03:54:42.773Z,24.88
2023-04-10T03:57:12.729Z,24.98
2023-04-10T03:59:42.579Z,26.50
2023-04-10T04:02:12.803Z,24.17
2023-04-10T04:04:43.410Z,26.45
2023-04-10T04:07:15.314Z,24.70
2023-04-10T04:09:45.157Z,24.83
2023-04-10T04:12:14.952Z,24.23
2023-04-10T04:14:45.814Z,25.35
2023-04-10T04:17:15.704Z,25.55
2023-04-10T04:19:45.953Z,25.42
2023-04-10T04:22:16.116Z,26.67
2023-04-10T04:24:45.904Z,25.30
2023-04-10T04:27:15.754Z,25.10
2023-04-10T04:29:45.458Z,24.90
2023-04-10T04:32:15.303Z,24.90
2023-04-10T04:34:45.146Z,25.83
2023-04-10T04:37:18.001Z,24.95
2023-04-10T04:42:17.954Z,24.55
2023-04-10T04:44:47.814Z,24.90
2023-04-10T04:47:18.857Z,25.67
2023-04-10T04:49:48.804Z,25.50
2023-04-10T04:52:18.713Z,23.45
2023-04-10T04:54:48.676Z,23.67
2023-04-10T04:57:18.622Z,23.95
2023-04-10T04:59:48.320Z,25.60
2023-04-10T05:02:18.655Z,24.33
2023-04-10T05:04:48.759Z,26.42
2023-04-10T05:07:19.324Z,24.70
2023-04-10T05:09:49.152Z,26.77
2023-04-10T05:12:19.265Z,24.58
2023-04-10T05:14:49.228Z,24.23
2023-04-10T05:17:19.229Z,24.48
2023-04-10T05:19:49.050Z,24.52
2023-04-10T05:22:19.007Z,25.73
2023-04-10T05:24:51.367Z,24.90
2023-04-10T05:27:21.033Z,24.60
2023-04-10T05:29:50.902Z,24.75
2023-04-10T05:32:20.855Z,24.77
2023-04-10T05:34:50.758Z,25.33
2023-04-10T05:37:20.526Z,25.38
2023-04-10T05:39:50.346Z,25.10
2023-04-10T05:42:21.491Z,24.05
2023-04-10T05:44:52.970Z,24.55
2023-04-10T05:47:22.926Z,24.52
2023-04-10T05:49:52.911Z,24.90
2023-04-10T05:52:22.700Z,26.27
2023-04-10T05:54:53.859Z,23.75
2023-04-10T05:57:23.722Z,23.70
2023-04-10T05:59:53.529Z,24.83
2023-04-10T06:02:26.616Z,25.42
2023-04-10T06:04:56.519Z,26.27
2023-04-10T06:07:27.394Z,26.23
2023-04-10T06:09:57.345Z,26.90
2023-04-10T06:12:27.354Z,24.70
2023-04-10T06:14:57.732Z,24.65
2023-04-10T06:17:27.598Z,24.58
2023-04-10T06:19:58.521Z,23.52
2023-04-10T06:22:28.815Z,25.13
2023-04-10T06:24:58.624Z,25.25
2023-04-10T06:27:29.100Z,25.20
2023-04-10T06:30:01.947Z,26.02
2023-04-10T06:32:31.890Z,26.67
2023-04-10T06:35:01.884Z,25.30
2023-04-10T06:37:34.485Z,26.33
2023-04-10T06:40:12.150Z,24.48
2023-04-10T06:45:12.291Z,23.85
2023-04-10T06:47:42.601Z,23.20
2023-04-10T06:50:12.779Z,22.80
2023-04-10T06:52:42.576Z,24.08
2023-04-10T06:55:14.487Z,23.08
2023-04-10T06:57:44.386Z,23.27
2023-04-10T07:00:14.475Z,24.10
2023-04-10T07:02:44.175Z,24.02
2023-04-10T07:05:14.095Z,23.85
2023-04-10T07:07:44.628Z,24.25
2023-04-10T07:10:15.322Z,24.00
2023-04-10T07:12:45.812Z,24.17
2023-04-10T07:15:15.618Z,24.83
2023-04-10T07:17:46.085Z,23.92
2023-04-10T07:20:16.039Z,25.20
2023-04-10T07:22:45.844Z,24.90
2023-04-10T07:25:16.109Z,24.65
2023-04-10T07:27:46.078Z,24.27
2023-04-10T07:30:16.069Z,23.90
2023-04-10T07:32:47.151Z,24.23
2023-04-10T07:35:16.972Z,22.92
2023-04-10T07:37:46.865Z,23.83
2023-04-10T07:40:16.570Z,23.42
2023-04-10T07:42:46.340Z,24.63
2023-04-10T07:45:16.179Z,24.98
2023-04-10T07:47:46.113Z,25.17
2023-04-10T07:50:16.014Z,23.05
2023-04-10T07:52:45.669Z,24.27
2023-04-10T07:55:15.484Z,24.27
2023-04-10T07:57:45.482Z,26.38
2023-04-10T08:00:15.927Z,25.17
2023-04-10T08:02:45.848Z,24.98
2023-04-10T08:05:15.751Z,24.65
2023-04-10T08:07:46.535Z,23.73
2023-04-10T08:10:16.397Z,23.52
2023-04-10T08:12:46.175Z,24.58
2023-04-10T08:15:16.081Z,24.42
2023-04-10T08:17:45.951Z,23.98
2023-04-10T08:20:16.219Z,23.40
2023-04-10T08:22:46.093Z,23.45
2023-04-10T08:25:15.782Z,23.95
2023-04-10T08:27:45.600Z,24.85
2023-04-10T08:30:15.592Z,24.13
2023-04-10T08:32:45.523Z,24.00
2023-04-10T08:35:15.394Z,24.75
2023-04-10T08:37:49.614Z,24.30
2023-04-10T08:40:23.687Z,24.00
2023-04-10T08:42:53.469Z,24.40
2023-04-10T08:45:24.949Z,25.05
2023-04-10T08:47:57.509Z,25.40
2023-04-10T08:50:27.546Z,24.50
2023-04-10T08:52:59.171Z,25.17
2023-04-10T08:55:29.447Z,24.83
2023-04-10T08:58:01.528Z,25.48
2023-04-10T09:00:33.406Z,24.55
2023-04-10T09:03:06.739Z,25.20
2023-04-10T09:05:38.952Z,25.35
2023-04-10T09:08:14.044Z,25.35
2023-04-10T09:10:43.763Z,25.52
2023-04-10T09:13:13.574Z,26.52
2023-04-10T09:16:03.102Z,25.15
2023-04-10T09:18:53.302Z,25.35
2023-04-10T09:21:24.003Z,25.30
2023-04-10T09:24:03.462Z,24.58
2023-04-10T09:26:35.330Z,27.17
2023-04-10T09:29:09.620Z,26.30
2023-04-10T09:31:40.827Z,25.60
2023-04-10T09:34:19.680Z,24.77
2023-04-10T09:37:11.216Z,24.90
2023-04-10T09:39:47.797Z,27.48
2023-04-10T09:42:17.981Z,26.45
2023-04-10T09:44:47.734Z,26.05
2023-04-10T09:47:23.559Z,25.23
2023-04-10T09:49:55.179Z,25.10
2023-04-10T09:52:40.028Z,24.45
2023-04-10T09:55:10.613Z,24.80
2023-04-10T09:57:40.510Z,25.52
2023-04-10T10:00:11.262Z,25.63
2023-04-10T10:02:41.929Z,25.05
2023-04-10T10:05:12.620Z,23.83
2023-04-10T10:07:45.777Z,24.50
2023-04-10T10:10:16.834Z,30.58
2023-04-10T10:12:52.442Z,31.65
2023-04-10T10:15:49.420Z,30.42
2023-04-10T10:18:46.856Z,30.40
2023-04-10T10:21:17.537Z,32.58
2023-04-10T10:23:50.202Z,32.47
2023-04-10T10:26:21.259Z,30.70
2023-04-10T10:28:53.684Z,30.00
2023-04-10T10:31:26.151Z,31.20
2023-04-10T10:33:56.377Z,30.10
2023-04-10T10:36:27.697Z,28.85
2023-04-10T10:39:19.091Z,27.88
2023-04-10T10:42:16.570Z,29.42
2023-04-10T10:45:03.700Z,28.05
2023-04-10T10:47:35.840Z,27.35
2023-04-10T10:50:06.669Z,28.35
2023-04-10T10:52:45.642Z,29.13
2023-04-10T10:55:39.336Z,27.65
2023-04-10T10:58:13.315Z,28.02
2023-04-10T11:01:10.729Z,28.10
2023-04-10T11:03:41.483Z,28.42
2023-04-10T11:06:14.444Z,27.05
2023-04-10T11:08:51.128Z,29.77
2023-04-10T11:11:29.186Z,30.13
2023-04-10T11:14:19.519Z,29.10
2023-04-10T11:16:50.254Z,29.67
2023-04-10T11:19:23.558Z,29.52
2023-04-10T11:22:09.300Z,28.88
2023-04-10T11:25:00.165Z,29.35
2023-04-10T11:27:54.563Z,30.63
2023-04-10T11:30:33.899Z,30.50
2023-04-10T11:33:05.522Z,30.02
2023-04-10T11:35:36.118Z,30.38
2023-04-10T11:38:20.197Z,29.63
2023-04-10T11:41:03.915Z,31.33
2023-04-10T11:43:35.644Z,30.05
2023-04-10T11:46:10.314Z,28.65
2023-04-10T11:48:40.485Z,30.67
2023-04-10T11:51:11.766Z,28.85
2023-04-10T11:53:42.279Z,27.67
2023-04-10T11:56:25.753Z,26.77
2023-04-10T11:58:56.106Z,25.50
2023-04-10T12:01:26.462Z,25.77
2023-04-10T12:03:56.537Z,24.52
2023-04-10T12:06:26.836Z,24.73
2023-04-10T12:08:57.476Z,32.97
2023-04-10T12:11:30.680Z,45.70
2023-04-10T12:14:00.823Z,36.95
2023-04-10T12:16:30.710Z,34.67
2023-04-10T12:19:00.824Z,27.10
2023-04-10T12:21:30.884Z,43.08
2023-04-10T12:24:00.694Z,35.88
2023-04-10T12:26:30.727Z,42.45
2023-04-10T12:29:01.407Z,32.30
2023-04-10T12:31:36.476Z,30.67
2023-04-10T12:34:09.807Z,33.92
2023-04-10T12:36:40.440Z,33.42
2023-04-10T12:39:25.401Z,32.33
2023-04-10T12:41:55.222Z,29.52
2023-04-10T12:44:25.039Z,31.83
2023-04-10T12:47:03.587Z,30.10
2023-04-10T12:49:33.502Z,36.13
2023-04-10T12:52:03.383Z,38.00
2023-04-10T12:54:38.181Z,37.58
2023-04-10T12:57:09.011Z,32.80
2023-04-10T12:59:39.216Z,49.40
2023-04-10T13:02:09.081Z,41.80
2023-04-10T13:04:39.480Z,39.10
2023-04-10T13:07:09.557Z,33.42
2023-04-10T13:09:39.391Z,29.45
2023-04-10T13:12:10.021Z,30.60
2023-04-10T13:14:39.770Z,31.20
2023-04-10T13:17:09.525Z,46.63
2023-04-10T13:19:39.434Z,29.23
2023-04-10T13:22:09.361Z,39.45
2023-04-10T13:24:40.052Z,34.00
2023-04-10T13:27:11.388Z,42.75
2023-04-10T13:29:44.338Z,38.55
2023-04-10T13:32:14.260Z,33.30
2023-04-10T13:34:44.083Z,32.53
2023-04-10T13:37:17.346Z,30.27
2023-04-10T13:39:47.176Z,29.10
2023-04-10T13:42:17.357Z,27.33
2023-04-10T13:44:47.337Z,27.10
2023-04-10T13:47:17.322Z,30.17
2023-04-10T13:49:57.498Z,35.05
2023-04-10T13:52:27.741Z,32.40
2023-04-10T13:54:57.572Z,31.50
2023-04-10T13:57:27.446Z,25.80
2023-04-10T13:59:57.376Z,26.25
2023-04-10T14:02:27.494Z,25.40
2023-04-10T14:04:57.489Z,25.23
2023-04-10T14:07:27.301Z,27.08
2023-04-10T14:09:57.292Z,28.65
2023-04-10T14:12:30.361Z,26.63
2023-04-10T14:15:01.435Z,25.95
2023-04-10T14:17:31.331Z,31.08
2023-04-10T14:20:01.081Z,27.48
2023-04-10T14:22:32.213Z,29.85
2023-04-10T14:25:12.268Z,33.75
2023-04-10T14:27:44.485Z,26.05
2023-04-10T14:30:15.589Z,27.40
2023-04-10T14:32:45.690Z,26.80
2023-04-10T14:35:15.604Z,25.88
2023-04-10T14:37:45.998Z,26.27
2023-04-10T14:40:15.927Z,27.17
2023-04-10T14:42:46.036Z,25.58
2023-04-10T14:45:15.843Z,30.38
2023-04-10T14:47:45.700Z,29.65
2023-04-10T14:50:16.056Z,27.48
2023-04-10T14:52:45.904Z,29.83
2023-04-10T14:55:15.608Z,27.98
2023-04-10T14:57:45.685Z,27.05
2023-04-10T15:00:15.804Z,27.35
2023-04-10T15:02:47.029Z,28.70
2023-04-10T15:05:17.011Z,27.83
2023-04-10T15:07:46.875Z,26.95
2023-04-10T15:10:17.051Z,27.20
2023-04-10T15:12:46.990Z,26.42
2023-04-10T15:15:17.024Z,27.13
2023-04-10T15:17:46.893Z,27.30
2023-04-10T15:20:16.846Z,27.63
2023-04-10T15:22:47.193Z,26.48
2023-04-10T15:25:17.082Z,27.30
2023-04-10T15:27:46.990Z,26.80
2023-04-10T15:30:16.920Z,26.05
2023-04-10T15:32:46.895Z,25.63
2023-04-10T15:35:16.708Z,26.15
2023-04-10T15:37:46.711Z,28.02
2023-04-10T15:40:16.538Z,27.80
2023-04-10T15:42:46.299Z,27.15
2023-04-10T15:45:16.129Z,30.52
2023-04-10T15:47:49.682Z,28.50
2023-04-10T15:50:19.697Z,27.88
2023-04-10T15:52:49.414Z,27.73
2023-04-10T15:55:19.588Z,27.83
2023-04-10T15:57:49.439Z,27.70
2023-04-10T16:00:19.621Z,28.35
2023-04-10T16:02:49.887Z,28.35
2023-04-10T16:05:19.977Z,26.90
2023-04-10T16:07:49.829Z,27.65
2023-04-10T16:10:19.889Z,28.20
2023-04-10T16:12:50.380Z,28.63
2023-04-10T16:15:20.274Z,28.55
2023-04-10T16:17:50.298Z,27.15
2023-04-10T16:20:20.586Z,28.13
2023-04-10T16:22:50.633Z,28.45
2023-04-10T16:25:21.820Z,26.98
2023-04-10T16:27:52.989Z,28.17
2023-04-10T16:30:23.207Z,26.67
2023-04-10T16:32:53.735Z,27.52
2023-04-10T16:35:24.303Z,28.63
2023-04-10T16:37:54.241Z,29.67
2023-04-10T16:40:24.686Z,31.42
2023-04-10T16:42:54.606Z,30.45
2023-04-10T16:45:24.367Z,30.52
2023-04-10T16:47:54.216Z,30.20
2023-04-10T16:50:24.073Z,30.92
2023-04-10T16:52:53.820Z,28.95
2023-04-10T16:55:23.697Z,29.48
2023-04-10T16:57:53.613Z,28.42
2023-04-10T17:00:23.494Z,29.55
2023-04-10T17:02:53.342Z,29.60
2023-04-10T17:05:23.201Z,29.08
2023-04-10T17:07:52.999Z,29.38
2023-04-10T17:10:22.826Z,30.00
2023-04-10T17:12:53.312Z,28.48
2023-04-10T17:15:23.000Z,28.63
2023-04-10T17:17:53.165Z,30.27
2023-04-10T17:20:23.030Z,29.02
2023-04-10T17:22:53.202Z,27.63
2023-04-10T17:25:23.011Z,28.35
2023-04-10T17:27:52.830Z,28.23
2023-04-10T17:30:22.681Z,28.50
2023-04-10T17:32:52.562Z,29.17
2023-04-10T17:35:22.421Z,29.80
2023-04-10T17:37:52.357Z,29.02
2023-04-10T17:40:22.370Z,30.83
2023-04-10T17:42:52.300Z,28.63
2023-04-10T17:45:22.204Z,27.63
2023-04-10T17:47:52.201Z,27.60
2023-04-10T17:50:22.116Z,28.15
2023-04-10T17:52:52.004Z,29.80
2023-04-10T17:55:22.059Z,28.55
2023-04-10T17:57:52.106Z,29.80
2023-04-10T18:00:23.268Z,30.13
2023-04-10T18:02:59.615Z,29.27
2023-04-10T18:05:30.656Z,28.70
2023-04-10T18:08:00.509Z,29.95
2023-04-10T18:10:30.346Z,30.65
2023-04-10T18:13:00.529Z,28.95
2023-04-10T18:15:33.138Z,28.38
2023-04-10T18:18:02.971Z,29.30
2023-04-10T18:20:32.795Z,29.33
2023-04-10T18:23:04.419Z,28.88
2023-04-10T18:25:34.652Z,28.85
2023-04-10T18:28:14.205Z,28.60
2023-04-10T18:30:44.667Z,29.42
2023-04-10T18:33:15.847Z,28.98
2023-04-10T18:35:45.783Z,29.05
2023-04-10T18:38:16.192Z,28.75
2023-04-10T18:40:46.157Z,30.63
2023-04-10T18:43:16.029Z,30.48
2023-04-10T18:45:46.262Z,27.88
2023-04-10T18:48:16.121Z,28.38
2023-04-10T18:50:45.930Z,30.60
2023-04-10T18:53:15.843Z,35.97
2023-04-10T18:55:54.687Z,34.30
2023-04-10T18:58:25.143Z,35.78
2023-04-10T19:00:56.286Z,34.33
2023-04-10T19:03:26.363Z,33.55
2023-04-10T19:05:56.152Z,32.72
2023-04-10T19:08:26.009Z,31.25
2023-04-10T19:10:55.828Z,31.10
2023-04-10T19:13:26.420Z,31.08
2023-04-10T19:15:56.812Z,33.10
2023-04-10T19:18:26.579Z,32.10
2023-04-10T19:20:56.428Z,33.47
2023-04-10T19:23:29.285Z,32.90
2023-04-10T19:26:01.371Z,32.60
2023-04-10T19:28:32.110Z,33.20
2023-04-10T19:31:02.178Z,33.50
2023-04-10T19:33:32.364Z,32.55
2023-04-10T19:36:02.356Z,34.08
2023-04-10T19:38:33.746Z,31.65
2023-04-10T19:41:03.429Z,32.65
2023-04-10T19:43:33.347Z,34.05
2023-04-10T19:46:03.131Z,33.50
2023-04-10T19:48:33.094Z,33.95
2023-04-10T19:51:07.269Z,33.70
2023-04-10T19:53:37.238Z,33.90
2023-04-10T19:56:07.462Z,32.55
2023-04-10T19:58:41.185Z,34.42
2023-04-10T20:01:11.983Z,31.95
2023-04-10T20:03:42.491Z,32.38
2023-04-10T20:06:13.236Z,31.65
2023-04-10T20:08:43.137Z,32.33
2023-04-10T20:11:12.959Z,32.53
2023-04-10T20:13:43.507Z,32.72
2023-04-10T20:16:13.969Z,32.47
2023-04-10T20:18:43.742Z,31.88
2023-04-10T20:21:13.594Z,31.67
2023-04-10T20:23:43.765Z,33.00
2023-04-10T20:26:14.959Z,31.17
2023-04-10T20:28:44.790Z,31.40
2023-04-10T20:31:14.928Z,32.83
2023-04-10T20:33:44.801Z,31.42
2023-04-10T20:36:15.435Z,30.50
2023-04-10T20:38:45.282Z,31.00
2023-04-10T20:41:15.050Z,31.33
2023-04-10T20:43:44.948Z,30.92
2023-04-10T20:46:14.774Z,31.77
2023-04-10T20:48:44.516Z,31.02
2023-04-10T20:51:14.353Z,31.77
2023-04-10T20:53:44.285Z,32.50
2023-04-10T20:56:14.246Z,31.73
2023-04-10T20:58:44.163Z,31.08
2023-04-10T21:01:14.108Z,32.80
2023-04-10T21:03:43.924Z,31.38
2023-04-10T21:06:13.893Z,33.22
2023-04-10T21:08:43.686Z,32.20
2023-04-10T21:11:13.385Z,31.80
2023-04-10T21:13:43.152Z,33.13
2023-04-10T21:16:12.996Z,33.28
2023-04-10T21:18:42.747Z,33.72
2023-04-10T21:21:12.846Z,34.10
2023-04-10T21:23:42.688Z,33.85
2023-04-10T21:26:12.575Z,33.80
2023-04-10T21:28:42.457Z,32.13
2023-04-10T21:31:12.407Z,33.05
2023-04-10T21:33:42.234Z,34.08
2023-04-10T21:36:12.173Z,33.95
2023-04-10T21:38:42.325Z,33.78
2023-04-10T21:41:12.258Z,34.80
2023-04-10T21:43:44.280Z,33.38
2023-04-10T21:46:14.162Z,33.22
2023-04-10T21:48:44.280Z,31.63
2023-04-10T21:51:13.990Z,32.63
2023-04-10T21:53:43.885Z,31.83
2023-04-10T21:56:13.571Z,32.92
2023-04-10T21:58:43.465Z,35.33
2023-04-10T22:01:14.176Z,33.83
2023-04-10T22:03:44.254Z,33.72
2023-04-10T22:06:14.084Z,33.50
2023-04-10T22:08:43.949Z,32.47
2023-04-10T22:11:13.775Z,31.92
2023-04-10T22:13:43.499Z,32.20
2023-04-10T22:16:13.448Z,31.80
2023-04-10T22:18:43.436Z,33.25
2023-04-10T22:21:14.991Z,34.10
2023-04-10T22:23:44.902Z,33.78
2023-04-10T22:26:14.765Z,33.08
2023-04-10T22:28:44.520Z,34.35
2023-04-10T22:31:21.852Z,32.95
2023-04-10T22:33:51.766Z,31.70
2023-04-10T22:36:22.010Z,32.00
2023-04-10T22:38:52.071Z,35.33
2023-04-10T22:41:21.952Z,32.30
2023-04-10T22:43:51.850Z,35.00
2023-04-10T22:46:21.754Z,37.13
2023-04-10T22:48:51.764Z,38.80
2023-04-10T22:51:21.541Z,36.45
2023-04-10T22:53:51.542Z,39.15
2023-04-10T22:56:25.008Z,38.05
2023-04-10T22:58:55.135Z,37.00
2023-04-10T23:01:25.114Z,36.92
2023-04-10T23:03:55.509Z,37.97
2023-04-10T23:06:25.961Z,36.95
2023-04-10T23:08:56.193Z,34.88
2023-04-10T23:11:26.299Z,35.50
2023-04-10T23:13:56.109Z,37.65
2023-04-10T23:16:26.164Z,37.08
2023-04-10T23:18:56.258Z,37.30
2023-04-10T23:21:26.168Z,41.55
2023-04-10T23:23:56.041Z,64.13
2023-04-10T23:26:26.018Z,37.65
2023-04-10T23:28:56.046Z,37.00
2023-04-10T23:31:26.028Z,38.28
2023-04-10T23:33:55.967Z,36.40
2023-04-10T23:36:25.879Z,36.33
2023-04-10T23:38:55.923Z,36.20
2023-04-10T23:41:26.005Z,35.45
2023-04-10T23:43:55.860Z,36.45
2023-04-10T23:46:25.733Z,36.85
2023-04-10T23:48:56.564Z,34.70
2023-04-10T23:51:26.413Z,35.63
2023-04-10T23:53:56.454Z,34.55
2023-04-10T23:56:30.748Z,36.40
2023-04-10T23:59:00.643Z,34.78
